Time;durP1;ratioP1;P1;durP2;ratioP2;P2;SDS_P1;SDS_P2;PMS_P1;PMS_P2;Temp;Humidity;BMP_temperature;BMP_pressure;BME280_temperature;BME280_humidity;BME280_pressure;Samples;Min_cycle;Max_cycle;Signal;HPM_P1;HPM_P2
2021/11/05 00:01:57;;;;;;;17.65;8.70;;;16.70;99.90;;;;;;5108711;28;20087;-46
2021/11/05 00:04:23;;;;;;;9.82;6.13;;;16.70;99.90;;;;;;5098575;28;20363;-47
2021/11/05 00:06:49;;;;;;;10.70;6.35;;;16.70;99.90;;;;;;5120749;28;20577;-46
2021/11/05 00:09:15;;;;;;;6.63;4.90;;;16.70;99.90;;;;;;5115522;28;20071;-46
2021/11/05 00:11:41;;;;;;;9.68;5.43;;;16.40;99.90;;;;;;5119145;28;20043;-46
2021/11/05 00:14:07;;;;;;;12.18;6.68;;;16.20;99.90;;;;;;5102585;28;20067;-47
2021/11/05 00:16:32;;;;;;;11.02;6.38;;;16.10;99.90;;;;;;5114742;28;20100;-46
2021/11/05 00:18:58;;;;;;;7.95;5.53;;;16.10;99.90;;;;;;5116034;28;20023;-46
2021/11/05 00:21:24;;;;;;;6.72;5.68;;;16.30;99.90;;;;;;5090724;28;20054;-46
2021/11/05 00:23:50;;;;;;;10.95;6.10;;;16.50;99.90;;;;;;5117750;28;20023;-47
2021/11/05 00:26:16;;;;;;;7.47;5.18;;;16.40;99.90;;;;;;5088195;28;20168;-46
2021/11/05 00:28:41;;;;;;;10.52;5.47;;;16.40;99.90;;;;;;5114281;28;20095;-47
2021/11/05 00:31:07;;;;;;;7.15;4.78;;;16.40;99.90;;;;;;5118755;28;20027;-47
2021/11/05 00:33:33;;;;;;;7.00;4.65;;;16.30;99.90;;;;;;5085911;28;20483;-46
2021/11/05 00:35:59;;;;;;;11.68;5.57;;;16.30;99.90;;;;;;5114628;27;20393;-46
2021/11/05 00:38:24;;;;;;;8.75;5.32;;;16.20;99.90;;;;;;5087928;28;20035;-46
2021/11/05 00:40:50;;;;;;;9.85;5.25;;;16.20;99.90;;;;;;5114484;28;20031;-46
2021/11/05 00:43:16;;;;;;;13.38;6.00;;;16.30;99.90;;;;;;5071695;28;20040;-47
2021/11/05 00:45:42;;;;;;;8.35;5.60;;;16.30;99.90;;;;;;5117866;28;20035;-48
2021/11/05 00:48:07;;;;;;;7.53;4.88;;;16.30;99.90;;;;;;5108941;28;20685;-46
2021/11/05 00:50:33;;;;;;;6.97;3.95;;;16.40;99.90;;;;;;5087144;28;20067;-46
2021/11/05 00:52:59;;;;;;;10.15;5.25;;;16.40;99.90;;;;;;5123575;28;20019;-46
2021/11/05 00:55:26;;;;;;;21.15;11.20;;;16.40;99.90;;;;;;5072171;28;20036;-46
2021/11/05 00:57:51;;;;;;;18.10;9.30;;;16.50;99.90;;;;;;5115409;28;20163;-46
2021/11/05 01:00:18;;;;;;;12.23;8.05;;;16.40;99.90;;;;;;5117111;28;20106;-46
2021/11/05 01:02:44;;;;;;;11.85;5.70;;;16.50;99.90;;;;;;5112912;27;20043;-47
2021/11/05 01:05:14;;;;;;;8.48;4.88;;;16.40;99.90;;;;;;5114853;27;20056;-47
2021/11/05 01:07:40;;;;;;;9.05;5.82;;;16.30;99.90;;;;;;5093528;28;20031;-46
2021/11/05 01:10:07;;;;;;;10.60;5.82;;;16.30;99.90;;;;;;5120711;28;20027;-47
2021/11/05 01:12:33;;;;;;;8.65;4.63;;;16.20;99.90;;;;;;5073094;28;20451;-47
2021/11/05 01:14:59;;;;;;;9.38;4.40;;;16.00;99.90;;;;;;5108059;28;20098;-46
2021/11/05 01:17:25;;;;;;;9.75;4.85;;;15.90;99.90;;;;;;5112290;27;20102;-46
2021/11/05 01:19:51;;;;;;;12.13;3.90;;;15.90;99.90;;;;;;5121076;27;20519;-46
2021/11/05 01:22:17;;;;;;;14.60;4.93;;;16.00;99.90;;;;;;5125013;27;20039;-47
2021/11/05 01:24:42;;;;;;;11.65;3.67;;;16.10;99.90;;;;;;5064281;27;20032;-46
2021/11/05 01:27:08;;;;;;;10.20;3.03;;;16.00;99.90;;;;;;5128317;27;20382;-46
2021/11/05 01:29:34;;;;;;;10.38;2.88;;;16.10;99.90;;;;;;5126075;27;20024;-47
2021/11/05 01:32:01;;;;;;;9.13;3.13;;;15.90;99.90;;;;;;5112610;27;20416;-47
2021/11/05 01:34:27;;;;;;;6.63;2.38;;;15.90;99.90;;;;;;5119122;27;20379;-47
2021/11/05 01:36:53;;;;;;;8.07;2.22;;;15.80;99.90;;;;;;5129565;27;20027;-46
2021/11/05 01:39:19;;;;;;;7.55;3.22;;;15.80;99.90;;;;;;5114857;27;20030;-46
2021/11/05 01:41:45;;;;;;;4.90;2.10;;;15.90;99.90;;;;;;5129370;27;20024;-46
2021/11/05 01:44:11;;;;;;;8.38;3.00;;;16.00;99.90;;;;;;5121754;27;20107;-46
2021/11/05 01:46:41;;;;;;;5.38;2.05;;;16.00;99.90;;;;;;5117470;27;20032;-46
2021/11/05 01:49:11;;;;;;;5.93;2.30;;;15.90;99.90;;;;;;5099468;28;20035;-46
2021/11/05 01:51:38;;;;;;;6.95;2.60;;;15.80;99.90;;;;;;5121128;27;20051;-47
2021/11/05 01:54:09;;;;;;;6.28;2.45;;;15.80;99.90;;;;;;5116270;27;20117;-46
2021/11/05 01:56:36;;;;;;;5.32;2.40;;;15.80;99.90;;;;;;5118644;27;20036;-46
2021/11/05 01:59:03;;;;;;;5.65;2.15;;;15.90;99.90;;;;;;5117944;27;20027;-46
2021/11/05 02:01:29;;;;;;;7.95;3.50;;;15.90;99.90;;;;;;5112511;27;20031;-47
2021/11/05 02:03:54;;;;;;;5.32;1.80;;;15.90;99.90;;;;;;5117724;27;20023;-47
2021/11/05 02:06:22;;;;;;;6.78;2.05;;;15.90;99.90;;;;;;5091643;28;20031;-46
2021/11/05 02:08:52;;;;;;;3.85;1.75;;;16.00;99.90;;;;;;5121401;27;20043;-46
2021/11/05 02:11:19;;;;;;;8.65;2.95;;;16.00;99.90;;;;;;5117134;27;20493;-46
2021/11/05 02:13:46;;;;;;;8.57;3.28;;;15.80;99.90;;;;;;5118975;27;20024;-46
2021/11/05 02:16:13;;;;;;;9.30;3.05;;;15.90;99.90;;;;;;5117305;27;20032;-46
2021/11/05 02:18:40;;;;;;;8.45;2.33;;;15.80;99.90;;;;;;5120620;27;20049;-47
2021/11/05 02:21:11;;;;;;;6.10;1.85;;;15.80;99.90;;;;;;5124058;27;20019;-46
2021/11/05 02:23:36;;;;;;;7.57;2.60;;;16.00;99.90;;;;;;5101556;27;20036;-47
2021/11/05 02:26:03;;;;;;;5.57;2.08;;;16.10;99.90;;;;;;5118187;27;20062;-46
2021/11/05 02:28:38;;;;;;;7.72;2.05;;;16.00;99.90;;;;;;5119808;27;20028;-47
2021/11/05 02:31:05;;;;;;;7.90;2.22;;;16.10;99.90;;;;;;5109600;27;20022;-46
2021/11/05 02:33:31;;;;;;;9.07;2.30;;;16.00;99.90;;;;;;5094878;28;20084;-46
2021/11/05 02:35:57;;;;;;;5.93;2.83;;;15.70;99.90;;;;;;5098398;27;20030;-46
2021/11/05 02:38:24;;;;;;;7.57;2.80;;;15.80;99.90;;;;;;5122084;27;20027;-46
2021/11/05 02:40:51;;;;;;;11.18;3.65;;;15.90;99.90;;;;;;5077566;27;20455;-46
2021/11/05 02:43:18;;;;;;;9.77;3.25;;;15.80;99.90;;;;;;5124093;27;20126;-47
2021/11/05 02:45:49;;;;;;;4.68;2.45;;;15.80;99.90;;;;;;5120401;27;20458;-46
2021/11/05 02:48:15;;;;;;;9.50;3.08;;;15.50;99.90;;;;;;5091586;28;20125;-46
2021/11/05 02:50:41;;;;;;;8.48;2.85;;;15.60;99.90;;;;;;5110525;27;20489;-46
2021/11/05 02:53:07;;;;;;;6.38;2.83;;;15.70;99.90;;;;;;5111974;27;20019;-46
2021/11/05 02:55:33;;;;;;;7.97;3.72;;;15.80;99.90;;;;;;5130235;27;20024;-46
2021/11/05 02:57:59;;;;;;;7.38;3.40;;;15.90;99.90;;;;;;5116700;27;20054;-47
2021/11/05 03:00:25;;;;;;;7.82;3.75;;;15.80;99.90;;;;;;5120927;27;20030;-46
2021/11/05 03:02:51;;;;;;;10.30;4.60;;;15.90;99.90;;;;;;5115844;27;20027;-46
2021/11/05 03:05:17;;;;;;;6.60;3.42;;;16.00;99.90;;;;;;5117177;27;20485;-47
2021/11/05 03:07:43;;;;;;;11.23;3.28;;;16.00;99.90;;;;;;5113487;27;20097;-47
2021/11/05 03:10:12;;;;;;;6.63;2.10;;;15.90;99.90;;;;;;5126370;27;20486;-46
2021/11/05 03:12:38;;;;;;;4.55;2.30;;;15.80;99.90;;;;;;5117157;27;20081;-47
2021/11/05 03:15:04;;;;;;;10.50;3.35;;;15.60;99.90;;;;;;5112697;27;20047;-46
2021/11/05 03:17:31;;;;;;;10.25;3.15;;;15.50;99.90;;;;;;5114404;27;20088;-46
2021/11/05 03:19:57;;;;;;;9.98;4.15;;;15.60;99.90;;;;;;5111187;27;20102;-46
2021/11/05 03:22:23;;;;;;;10.68;4.15;;;15.50;99.90;;;;;;5113697;27;20409;-47
2021/11/05 03:24:49;;;;;;;8.18;3.22;;;15.40;99.90;;;;;;5119192;27;20031;-47
2021/11/05 03:27:15;;;;;;;6.85;2.10;;;15.20;99.90;;;;;;5118227;27;20027;-46
2021/11/05 03:29:41;;;;;;;6.85;3.22;;;15.20;99.90;;;;;;5113437;27;20036;-46
2021/11/05 03:32:08;;;;;;;10.20;3.88;;;15.20;99.90;;;;;;5088727;28;20035;-46
2021/11/05 03:34:34;;;;;;;12.40;3.58;;;15.20;99.90;;;;;;5082156;27;20410;-46
2021/11/05 03:36:59;;;;;;;8.45;3.33;;;15.30;99.90;;;;;;5122718;27;20027;-47
2021/11/05 03:39:25;;;;;;;8.77;2.88;;;15.20;99.90;;;;;;5091001;28;20470;-47
2021/11/05 03:41:51;;;;;;;5.55;1.48;;;15.10;99.90;;;;;;5116728;27;20039;-46
2021/11/05 03:44:17;;;;;;;10.45;2.55;;;14.70;99.90;;;;;;5120045;27;20095;-46
2021/11/05 03:46:43;;;;;;;6.55;3.22;;;14.50;99.90;;;;;;5119316;27;20352;-46
2021/11/05 03:49:09;;;;;;;4.72;2.78;;;14.70;99.90;;;;;;5122834;27;20020;-47
2021/11/05 03:51:35;;;;;;;8.63;2.80;;;14.90;99.90;;;;;;5099249;27;20054;-46
2021/11/05 03:54:01;;;;;;;8.50;3.92;;;15.00;99.90;;;;;;5117415;27;20023;-46
2021/11/05 03:56:28;;;;;;;4.82;2.58;;;15.10;99.90;;;;;;5108275;27;20024;-46
2021/11/05 03:58:54;;;;;;;9.55;2.85;;;14.80;99.90;;;;;;5119356;27;20172;-46
2021/11/05 04:01:20;;;;;;;6.45;2.92;;;15.00;99.90;;;;;;5121965;27;20111;-46
2021/11/05 04:03:49;;;;;;;5.78;2.30;;;15.00;99.90;;;;;;5119145;28;20028;-46
2021/11/05 04:06:16;;;;;;;6.13;2.75;;;15.00;99.90;;;;;;5117026;28;20149;-46
2021/11/05 04:08:42;;;;;;;11.88;3.40;;;14.90;99.90;;;;;;5112073;28;20042;-46
2021/11/05 04:11:08;;;;;;;5.60;3.08;;;14.90;99.90;;;;;;5088263;28;20038;-46
2021/11/05 04:13:34;;;;;;;8.63;3.45;;;14.90;99.90;;;;;;5092082;28;20039;-47
2021/11/05 04:16:00;;;;;;;9.65;3.88;;;15.00;99.90;;;;;;5119470;28;20074;-46
2021/11/05 04:18:26;;;;;;;15.98;6.75;;;15.20;99.90;;;;;;5108239;28;20465;-47
2021/11/05 04:20:52;;;;;;;7.15;2.80;;;15.20;99.90;;;;;;5117136;28;20587;-47
2021/11/05 04:23:18;;;;;;;7.18;2.55;;;15.30;99.90;;;;;;5124764;28;20036;-46
2021/11/05 04:25:45;;;;;;;8.23;2.20;;;15.30;99.90;;;;;;5111490;28;20019;-46
2021/11/05 04:28:12;;;;;;;3.33;1.92;;;15.30;99.90;;;;;;5092474;28;20038;-46
2021/11/05 04:30:38;;;;;;;9.13;3.47;;;15.30;99.90;;;;;;5116918;28;20369;-46
2021/11/05 04:33:05;;;;;;;6.38;2.20;;;15.30;99.90;;;;;;5119111;27;20561;-46
2021/11/05 04:35:31;;;;;;;5.32;1.83;;;15.20;99.90;;;;;;5088446;28;20032;-46
2021/11/05 04:37:57;;;;;;;5.20;1.50;;;15.10;99.90;;;;;;5090743;28;20031;-46
2021/11/05 04:40:22;;;;;;;2.95;1.30;;;15.10;99.90;;;;;;5115108;27;20429;-46
2021/11/05 04:42:48;;;;;;;4.28;1.40;;;15.10;99.90;;;;;;5098641;28;20039;-47
2021/11/05 04:45:15;;;;;;;8.88;2.10;;;15.10;99.90;;;;;;5067381;28;20122;-46
2021/11/05 04:47:40;;;;;;;5.68;1.40;;;15.00;99.90;;;;;;5123573;28;20098;-46
2021/11/05 04:50:07;;;;;;;4.53;2.10;;;15.00;99.90;;;;;;5099925;28;20154;-46
2021/11/05 04:52:34;;;;;;;5.78;1.30;;;15.00;99.90;;;;;;5114512;27;20028;-46
2021/11/05 04:55:00;;;;;;;4.60;1.50;;;15.00;99.90;;;;;;5121573;27;20053;-46
2021/11/05 04:57:26;;;;;;;4.65;1.42;;;15.00;99.90;;;;;;5090442;28;20035;-46
2021/11/05 04:59:52;;;;;;;6.70;1.92;;;15.00;99.90;;;;;;5104854;27;20162;-46
2021/11/05 05:02:19;;;;;;;10.02;2.97;;;15.10;99.90;;;;;;5057938;28;20136;-46
2021/11/05 05:04:46;;;;;;;8.73;4.35;;;15.20;99.90;;;;;;5111978;27;20031;-46
2021/11/05 05:07:13;;;;;;;4.53;1.20;;;15.40;99.90;;;;;;5123077;27;20031;-46
2021/11/05 05:09:39;;;;;;;3.65;1.50;;;15.30;99.90;;;;;;5115381;27;20035;-46
2021/11/05 05:12:05;;;;;;;4.43;1.23;;;15.40;99.90;;;;;;5088538;28;20044;-46
2021/11/05 05:14:31;;;;;;;3.70;1.42;;;15.30;99.90;;;;;;5080144;27;20092;-46
2021/11/05 05:16:57;;;;;;;5.03;1.65;;;15.30;99.90;;;;;;5114299;27;20040;-46
2021/11/05 05:19:23;;;;;;;6.13;1.85;;;15.00;99.90;;;;;;5109982;27;20108;-47
2021/11/05 05:21:48;;;;;;;4.47;2.00;;;15.00;99.90;;;;;;5084788;27;20035;-46
2021/11/05 05:24:14;;;;;;;4.97;2.28;;;15.10;99.90;;;;;;5108964;27;20028;-46
2021/11/05 05:26:40;;;;;;;6.00;1.90;;;14.80;99.90;;;;;;5117781;27;20097;-46
2021/11/05 05:29:06;;;;;;;6.05;2.80;;;14.80;99.90;;;;;;5121236;27;20032;-46
2021/11/05 05:31:32;;;;;;;4.88;1.90;;;14.80;99.90;;;;;;5089938;27;20512;-46
2021/11/05 05:33:58;;;;;;;6.45;2.53;;;14.80;99.90;;;;;;5115918;27;20084;-46
2021/11/05 05:36:24;;;;;;;6.20;2.03;;;14.90;99.90;;;;;;5097216;28;20479;-46
2021/11/05 05:38:50;;;;;;;6.15;1.90;;;14.90;99.90;;;;;;5126755;27;20023;-46
2021/11/05 05:41:17;;;;;;;5.68;1.83;;;14.70;99.90;;;;;;5117755;27;20443;-47
2021/11/05 05:43:43;;;;;;;9.38;2.00;;;14.60;99.90;;;;;;5109072;27;20043;-47
2021/11/05 05:46:09;;;;;;;7.20;2.20;;;14.70;99.90;;;;;;5124599;27;20035;-47
2021/11/05 05:48:35;;;;;;;10.88;5.22;;;14.70;99.90;;;;;;5086118;27;20036;-46
2021/11/05 05:51:01;;;;;;;8.52;5.63;;;14.80;99.90;;;;;;5104835;27;20498;-46
2021/11/05 05:53:26;;;;;;;11.15;5.15;;;14.90;99.90;;;;;;5095701;28;20077;-46
2021/11/05 05:55:52;;;;;;;7.82;3.05;;;15.00;99.90;;;;;;5114903;27;20390;-46
2021/11/05 05:58:18;;;;;;;5.88;2.35;;;15.00;99.90;;;;;;5119613;27;20364;-45
2021/11/05 06:00:44;;;;;;;8.68;5.82;;;15.00;99.90;;;;;;5141545;27;20025;-46
2021/11/05 06:03:11;;;;;;;8.25;4.15;;;15.00;99.90;;;;;;5119621;27;20043;-45
2021/11/05 06:05:38;;;;;;;8.15;4.60;;;15.10;99.90;;;;;;5119247;27;20022;-46
2021/11/05 06:08:04;;;;;;;15.43;12.38;;;15.20;99.90;;;;;;5114539;27;20043;-46
2021/11/05 06:10:29;;;;;;;24.33;20.92;;;15.20;99.90;;;;;;5082612;27;20045;-46
2021/11/05 06:12:55;;;;;;;25.35;16.58;;;15.30;99.90;;;;;;5117420;27;20027;-46
2021/11/05 06:15:21;;;;;;;20.88;16.92;;;15.30;99.90;;;;;;5118665;27;20132;-46
2021/11/05 06:17:47;;;;;;;27.08;19.80;;;15.20;99.90;;;;;;5108894;27;20036;-47
2021/11/05 06:20:13;;;;;;;18.88;12.85;;;15.00;99.90;;;;;;5124734;27;20031;-46
2021/11/05 06:22:38;;;;;;;16.33;10.80;;;15.20;99.90;;;;;;5096840;27;20040;-46
2021/11/05 06:25:05;;;;;;;17.77;11.90;;;15.10;99.90;;;;;;5053098;28;20056;-48
2021/11/05 06:27:31;;;;;;;28.92;20.77;;;15.20;99.90;;;;;;5094012;28;20062;-46
2021/11/05 06:29:57;;;;;;;27.15;18.77;;;15.30;99.90;;;;;;5123299;27;20023;-46
2021/11/05 06:32:23;;;;;;;31.85;22.52;;;15.30;99.90;;;;;;5066385;28;20036;-46
2021/11/05 06:34:49;;;;;;;10.60;7.25;;;15.40;99.90;;;;;;5122778;27;20032;-46
2021/11/05 06:37:15;;;;;;;5.95;3.13;;;15.40;99.90;;;;;;5106665;27;20431;-46
2021/11/05 06:39:41;;;;;;;7.38;5.00;;;15.40;99.90;;;;;;5102370;27;20035;-46
2021/11/05 06:42:07;;;;;;;9.63;4.82;;;15.30;99.90;;;;;;5062320;27;20031;-46
2021/11/05 06:44:34;;;;;;;22.77;14.02;;;15.30;99.90;;;;;;5115563;27;20031;-45
2021/11/05 06:47:00;;;;;;;12.00;6.82;;;15.30;99.90;;;;;;5115619;27;20027;-46
2021/11/05 06:49:26;;;;;;;9.25;5.68;;;15.10;99.90;;;;;;5118399;27;20389;-47
2021/11/05 06:51:55;;;;;;;12.07;9.00;;;15.00;99.90;;;;;;5103362;28;20071;-46
2021/11/05 06:54:24;;;;;;;12.80;6.47;;;14.90;99.90;;;;;;5090599;27;20043;-46
2021/11/05 06:56:51;;;;;;;9.65;6.07;;;15.00;99.90;;;;;;5088821;28;20035;-46
2021/11/05 06:59:17;;;;;;;27.58;16.73;;;15.10;99.90;;;;;;5094273;28;20024;-47
2021/11/05 07:01:43;;;;;;;11.32;7.93;;;15.30;99.90;;;;;;5096122;28;20020;-46
2021/11/05 07:04:08;;;;;;;14.38;10.20;;;15.30;99.90;;;;;;5097758;28;20024;-45
2021/11/05 07:06:36;;;;;;;11.38;7.03;;;15.30;99.90;;;;;;5091148;28;20016;-46
2021/11/05 07:09:02;;;;;;;9.27;6.65;;;15.20;99.90;;;;;;5083636;28;20079;-46
2021/11/05 07:11:28;;;;;;;7.50;4.97;;;15.10;99.90;;;;;;5086309;28;20113;-46
2021/11/05 07:13:53;;;;;;;10.05;4.97;;;14.70;99.90;;;;;;5090602;28;20130;-46
2021/11/05 07:16:22;;;;;;;8.02;5.00;;;14.60;99.90;;;;;;5091311;28;20050;-46
2021/11/05 07:18:49;;;;;;;7.85;6.07;;;14.80;99.90;;;;;;5088140;28;20024;-46
2021/11/05 07:21:15;;;;;;;6.72;4.72;;;15.00;99.90;;;;;;5089139;28;20043;-46
2021/11/05 07:23:41;;;;;;;7.53;5.22;;;15.10;99.90;;;;;;5102606;27;20044;-47
2021/11/05 07:26:11;;;;;;;7.55;4.13;;;15.10;99.90;;;;;;5081126;28;20024;-46
2021/11/05 07:28:37;;;;;;;6.75;4.60;;;15.20;99.90;;;;;;5083897;28;20032;-46
2021/11/05 07:31:03;;;;;;;11.07;6.57;;;15.30;99.90;;;;;;5089599;28;20031;-47
2021/11/05 07:33:29;;;;;;;5.95;4.47;;;15.40;99.90;;;;;;5082018;28;20031;-47
2021/11/05 07:35:55;;;;;;;8.13;4.40;;;15.60;99.90;;;;;;5085488;28;20028;-45
2021/11/05 07:38:21;;;;;;;7.00;3.97;;;15.60;99.90;;;;;;5086333;28;20042;-47
2021/11/05 07:40:47;;;;;;;9.80;7.00;;;15.50;99.90;;;;;;5084775;28;20569;-49
2021/11/05 07:43:13;;;;;;;18.85;14.63;;;15.60;99.90;;;;;;5085143;28;20040;-47
2021/11/05 07:45:38;;;;;;;15.43;11.05;;;15.70;99.90;;;;;;5087397;28;20063;-46
2021/11/05 07:48:05;;;;;;;11.50;9.05;;;15.70;99.90;;;;;;5091762;28;20024;-46
2021/11/05 07:50:33;;;;;;;13.85;10.93;;;15.50;99.90;;;;;;5092939;27;20451;-45
2021/11/05 07:53:01;;;;;;;18.67;13.38;;;15.50;99.90;;;;;;5112333;27;20027;-46
2021/11/05 07:55:30;;;;;;;15.43;11.77;;;15.50;99.90;;;;;;5104664;28;20048;-47
2021/11/05 07:57:56;;;;;;;11.45;8.75;;;15.50;99.90;;;;;;5109626;27;20020;-45
2021/11/05 08:00:22;;;;;;;9.80;7.57;;;15.30;99.90;;;;;;5108158;27;20478;-45
2021/11/05 08:02:48;;;;;;;9.63;7.63;;;15.10;99.90;;;;;;5092853;28;20054;-46
2021/11/05 08:05:14;;;;;;;9.05;6.60;;;15.30;99.90;;;;;;5038135;28;20040;-45
2021/11/05 08:07:41;;;;;;;10.10;6.55;;;15.10;99.90;;;;;;5070596;28;20028;-45
2021/11/05 08:10:08;;;;;;;25.13;18.05;;;15.10;99.90;;;;;;5075578;28;20059;-45
2021/11/05 08:12:34;;;;;;;25.02;15.63;;;15.00;99.90;;;;;;5058840;28;20407;-46
2021/11/05 08:15:00;;;;;;;12.25;9.20;;;14.90;99.90;;;;;;5071723;28;20036;-46
2021/11/05 08:17:26;;;;;;;8.77;7.50;;;15.10;99.90;;;;;;5067989;28;20033;-45
2021/11/05 08:19:52;;;;;;;12.68;11.48;;;15.20;99.90;;;;;;5054063;28;20160;-45
2021/11/05 08:22:19;;;;;;;8.15;6.60;;;15.30;99.90;;;;;;5078033;28;20040;-45
2021/11/05 08:24:46;;;;;;;8.65;7.40;;;15.30;99.90;;;;;;5034305;28;20124;-45
2021/11/05 08:27:13;;;;;;;10.50;8.43;;;15.30;99.90;;;;;;5053889;28;20528;-46
2021/11/05 08:29:39;;;;;;;7.90;6.55;;;15.30;99.90;;;;;;5069281;28;20055;-46
2021/11/05 08:32:05;;;;;;;9.48;7.20;;;15.50;99.90;;;;;;5064116;28;20032;-45
2021/11/05 08:34:31;;;;;;;7.85;6.95;;;15.50;99.90;;;;;;5061355;28;20054;-45
2021/11/05 08:36:57;;;;;;;8.20;6.55;;;15.60;99.90;;;;;;5098021;27;20039;-45
2021/11/05 08:39:23;;;;;;;8.20;6.60;;;15.50;99.90;;;;;;5060141;28;20087;-46
2021/11/05 08:41:49;;;;;;;13.10;10.43;;;15.60;99.90;;;;;;5092550;27;20039;-51
2021/11/05 08:44:15;;;;;;;9.02;7.80;;;15.60;99.90;;;;;;5084998;28;20036;-45
2021/11/05 08:46:43;;;;;;;11.75;9.77;;;15.70;99.90;;;;;;5115409;27;20034;-46
2021/11/05 08:49:12;;;;;;;6.75;6.05;;;15.70;99.90;;;;;;5114745;27;20039;-45
2021/11/05 08:51:44;;;;;;;8.50;6.40;;;15.60;99.90;;;;;;5116328;27;20061;-46
2021/11/05 08:54:10;;;;;;;9.32;7.30;;;15.60;99.90;;;;;;5091123;28;20059;-47
2021/11/05 08:56:37;;;;;;;7.68;6.75;;;15.60;99.90;;;;;;5108154;28;20023;-47
2021/11/05 08:59:03;;;;;;;11.18;7.40;;;15.70;99.90;;;;;;5108705;27;20097;-47
2021/11/05 09:01:30;;;;;;;9.23;7.10;;;15.60;99.90;;;;;;5119431;27;20027;-48
2021/11/05 09:03:56;;;;;;;9.75;8.35;;;15.70;99.90;;;;;;5112948;27;20122;-48
2021/11/05 09:06:21;;;;;;;10.52;8.20;;;15.70;99.90;;;;;;5117425;27;20493;-47
2021/11/05 09:08:49;;;;;;;11.05;8.52;;;15.60;99.90;;;;;;5124113;27;20030;-47
2021/11/05 09:11:15;;;;;;;12.68;9.32;;;15.60;99.90;;;;;;5114168;27;20108;-47
2021/11/05 09:13:41;;;;;;;10.50;9.13;;;15.40;99.90;;;;;;5092378;27;20036;-47
2021/11/05 09:16:07;;;;;;;21.63;15.38;;;15.40;99.90;;;;;;5092001;28;20043;-47
2021/11/05 09:18:33;;;;;;;15.73;12.15;;;15.20;99.90;;;;;;5103373;28;20051;-51
2021/11/05 09:21:00;;;;;;;33.88;25.33;;;15.50;99.90;;;;;;5064336;28;20036;-51
2021/11/05 09:23:27;;;;;;;18.15;12.60;;;15.50;99.90;;;;;;5081019;28;20043;-51
2021/11/05 09:25:54;;;;;;;17.02;13.07;;;15.40;99.90;;;;;;5083461;28;20534;-54
2021/11/05 09:28:20;;;;;;;22.83;16.90;;;15.10;99.90;;;;;;5077918;28;20437;-53
2021/11/05 09:30:46;;;;;;;19.80;17.08;;;15.10;99.90;;;;;;5087080;28;20041;-54
2021/11/05 09:33:12;;;;;;;19.00;15.05;;;15.10;99.90;;;;;;5083123;28;20097;-49
2021/11/05 09:35:38;;;;;;;20.58;17.15;;;15.20;99.90;;;;;;5088562;28;20136;-52
2021/11/05 09:38:04;;;;;;;22.42;17.63;;;15.30;99.90;;;;;;5086334;28;20474;-50
2021/11/05 09:40:30;;;;;;;24.45;18.33;;;15.30;99.90;;;;;;5088206;28;20071;-53
2021/11/05 09:42:58;;;;;;;17.30;14.80;;;15.40;99.90;;;;;;5084906;28;20036;-58
2021/11/05 09:45:25;;;;;;;19.88;16.65;;;15.40;99.90;;;;;;5082801;28;20101;-50
2021/11/05 09:47:51;;;;;;;16.35;14.38;;;15.40;99.90;;;;;;5103616;27;20036;-53
2021/11/05 09:50:21;;;;;;;16.40;13.25;;;15.30;99.90;;;;;;5106664;27;20043;-55
2021/11/05 09:52:48;;;;;;;15.75;13.13;;;15.40;99.90;;;;;;5113531;27;20027;-55
2021/11/05 09:55:15;;;;;;;42.75;28.25;;;15.30;99.90;;;;;;5085093;28;20070;-55
2021/11/05 09:57:41;;;;;;;27.45;19.75;;;15.20;99.90;;;;;;5110093;27;20028;-57
2021/11/05 10:00:12;;;;;;;17.35;12.32;;;15.00;99.90;;;;;;5108090;27;20479;-56
2021/11/05 10:02:38;;;;;;;50.50;35.13;;;14.90;99.90;;;;;;5058627;27;20091;-56
2021/11/05 10:05:05;;;;;;;65.28;47.85;;;14.90;99.90;;;;;;5113637;27;20046;-56
2021/11/05 10:07:38;;;;;;;23.50;17.67;;;14.90;99.90;;;;;;5111358;27;20540;-49
2021/11/05 10:10:04;;;;;;;9.70;7.32;;;15.00;99.90;;;;;;5112562;27;20042;-53
2021/11/05 10:12:30;;;;;;;9.48;6.88;;;15.20;99.90;;;;;;5115231;27;20023;-47
2021/11/05 10:15:03;;;;;;;29.70;20.02;;;15.30;99.90;;;;;;5118705;27;20114;-51
2021/11/05 10:17:31;;;;;;;119.47;73.18;;;15.40;99.90;;;;;;5113359;28;20602;-50
2021/11/05 10:20:00;;;;;;;242.68;147.90;;;15.50;99.90;;;;;;5109804;27;20060;-55
2021/11/05 10:22:48;;;;;;;64.07;47.75;;;15.50;99.90;;;;;;5115550;27;20058;-52
2021/11/05 10:25:28;;;;;;;89.07;60.45;;;15.60;99.90;;;;;;5113067;27;20035;-50
2021/11/05 10:28:17;;;;;;;24.60;17.65;;;15.50;99.90;;;;;;5096711;27;20046;-47
2021/11/05 10:30:42;;;;;;;11.45;9.15;;;15.50;99.90;;;;;;5040572;28;20055;-49
2021/11/05 10:33:09;;;;;;;42.05;37.92;;;15.50;99.90;;;;;;5035974;28;20489;-49
2021/11/05 10:35:38;;;;;;;9.32;8.43;;;15.10;99.90;;;;;;5036640;28;20127;-50
2021/11/05 10:38:05;;;;;;;9.93;7.88;;;15.10;99.90;;;;;;5009337;28;20132;-52
2021/11/05 10:40:42;;;;;;;9.40;8.40;;;15.20;99.90;;;;;;5040702;28;20025;-52
2021/11/05 10:43:08;;;;;;;9.10;7.30;;;15.20;99.90;;;;;;5035897;28;20509;-49
2021/11/05 10:45:37;;;;;;;9.85;8.95;;;15.10;99.90;;;;;;5031026;28;20032;-55
2021/11/05 10:48:06;;;;;;;6.25;4.40;;;14.90;99.90;;;;;;5033036;28;20118;-52
2021/11/05 10:50:34;;;;;;;7.07;5.80;;;14.70;99.90;;;;;;5003857;28;20053;-50
2021/11/05 10:53:07;;;;;;;6.78;5.55;;;14.80;99.90;;;;;;5030380;28;20026;-48
2021/11/05 10:55:45;;;;;;;7.72;6.93;;;14.80;99.90;;;;;;5030296;28;20063;-48
2021/11/05 10:58:39;;;;;;;8.88;7.13;;;14.80;99.90;;;;;;5033513;28;20095;-49
2021/11/05 11:01:08;;;;;;;9.20;8.20;;;14.80;99.90;;;;;;5032116;28;20077;-52
2021/11/05 11:03:45;;;;;;;10.82;9.68;;;14.90;99.90;;;;;;4993408;28;20422;-56
2021/11/05 11:06:14;;;;;;;15.57;13.10;;;15.10;99.90;;;;;;4992489;28;20038;-53
2021/11/05 11:08:45;;;;;;;17.48;15.57;;;14.80;99.90;;;;;;5072913;28;20184;-50
2021/11/05 11:11:16;;;;;;;16.57;13.23;;;14.70;99.90;;;;;;5084266;28;20082;-51
2021/11/05 11:13:43;;;;;;;17.42;14.07;;;14.60;99.90;;;;;;5085191;28;20289;-51
2021/11/05 11:16:34;;;;;;;16.40;14.43;;;14.50;99.90;;;;;;5078106;28;20036;-50
2021/11/05 11:19:07;;;;;;;21.33;17.83;;;14.20;99.90;;;;;;5076894;28;20032;-46
2021/11/05 11:21:40;;;;;;;14.73;11.98;;;14.20;99.90;;;;;;5078776;28;20482;-55
2021/11/05 11:24:08;;;;;;;13.75;12.35;;;14.30;99.90;;;;;;5073512;28;20405;-49
2021/11/05 11:26:38;;;;;;;14.00;10.13;;;14.30;99.90;;;;;;5079774;28;20037;-48
2021/11/05 11:29:05;;;;;;;11.55;10.32;;;14.10;99.90;;;;;;5079348;28;20146;-50
2021/11/05 11:31:32;;;;;;;11.82;10.00;;;14.10;99.90;;;;;;5052138;28;20504;-56
2021/11/05 11:34:02;;;;;;;12.57;10.98;;;14.20;99.90;;;;;;5087241;28;20028;-49
2021/11/05 11:36:35;;;;;;;10.35;9.23;;;14.10;99.90;;;;;;5118036;27;20378;-51
2021/11/05 13:18:17;;;;;;;10.75;7.47;;;10.70;99.90;;;;;;5102840;27;20447;-51
2021/11/05 13:20:46;;;;;;;12.35;8.38;;;11.00;99.90;;;;;;5069263;28;20048;-49
2021/11/05 13:23:14;;;;;;;9.63;6.82;;;11.10;99.90;;;;;;5084883;28;20032;-47
2021/11/05 13:25:45;;;;;;;11.60;8.88;;;11.10;99.90;;;;;;5078820;28;20127;-46
2021/11/05 13:28:22;;;;;;;19.33;13.33;;;11.00;99.90;;;;;;5072583;28;20504;-50
2021/11/05 13:30:54;;;;;;;15.82;12.95;;;11.00;99.90;;;;;;5077067;28;20045;-43
2021/11/05 13:33:21;;;;;;;14.88;11.90;;;11.00;99.90;;;;;;5078640;28;20028;-46
2021/11/05 13:35:54;;;;;;;12.93;10.18;;;11.00;99.90;;;;;;5073979;28;20041;-48
2021/11/05 13:38:47;;;;;;;9.27;8.25;;;11.20;99.90;;;;;;5089052;28;20391;-50
2021/11/05 13:41:16;;;;;;;15.25;12.02;;;11.30;99.90;;;;;;5065363;28;20033;-51
2021/11/05 13:43:45;;;;;;;15.98;13.07;;;11.50;99.90;;;;;;5080959;28;20065;-50
2021/11/05 13:46:14;;;;;;;15.68;12.07;;;11.60;99.90;;;;;;5077427;28;20044;-49
2021/11/05 13:48:45;;;;;;;13.48;11.20;;;11.70;99.90;;;;;;5085882;28;20023;-51
2021/11/05 13:51:17;;;;;;;25.58;20.80;;;11.70;99.90;;;;;;5086945;28;20120;-50
2021/11/05 13:53:53;;;;;;;29.30;24.83;;;11.70;99.90;;;;;;5084437;28;20046;-50
2021/11/05 13:56:21;;;;;;;13.40;11.32;;;11.60;99.90;;;;;;5089390;28;20396;-50
2021/11/05 13:58:52;;;;;;;14.57;10.05;;;11.60;99.90;;;;;;5034208;28;21687;-50
2021/11/05 14:01:21;;;;;;;16.00;13.25;;;11.40;99.90;;;;;;5059904;28;20144;-50
2021/11/05 14:03:49;;;;;;;12.88;10.55;;;11.20;99.90;;;;;;5062877;28;20040;-49
2021/11/05 14:06:16;;;;;;;12.82;9.48;;;11.10;99.90;;;;;;5072810;28;20532;-50
2021/11/05 14:08:53;;;;;;;12.38;10.10;;;11.10;99.90;;;;;;5072484;28;20029;-50
2021/11/05 14:11:35;;;;;;;15.77;10.88;;;11.00;99.90;;;;;;5064945;28;20140;-50
2021/11/05 14:14:03;;;;;;;16.25;12.63;;;10.90;99.90;;;;;;5061619;28;20043;-50
2021/11/05 14:16:30;;;;;;;12.52;9.93;;;11.00;99.90;;;;;;5044545;28;20071;-50
2021/11/05 14:19:06;;;;;;;10.00;7.28;;;10.90;99.90;;;;;;5055025;28;20045;-50
2021/11/05 14:21:32;;;;;;;13.90;11.32;;;10.80;99.90;;;;;;5053119;28;20029;-50